Time;durP1;ratioP1;P1;durP2;ratioP2;P2;SDS_P1;SDS_P2;PMS_P1;PMS_P2;Temp;Humidity;BMP_temperature;BMP_pressure;BME280_temperature;BME280_humidity;BME280_pressure;Samples;Min_cycle;Max_cycle;Signal;HPM_P1;HPM_P2
2022/11/30 00:04:22;;;;;;;91.53;61.25;;;;;;;5.35;100.00;102231.59;10610219;27;20066;-71
2022/11/30 00:09:23;;;;;;;85.15;60.03;;;;;;;5.39;100.00;102243.00;10607201;27;20034;-71
2022/11/30 00:14:23;;;;;;;77.82;59.53;;;;;;;5.31;100.00;102235.72;10567247;28;20039;-72
2022/11/30 00:19:24;;;;;;;87.10;60.55;;;;;;;5.38;100.00;102247.63;10568400;28;20028;-71
2022/11/30 00:24:24;;;;;;;81.82;57.67;;;;;;;5.38;100.00;102239.44;10585706;28;20035;-72
2022/11/30 00:29:25;;;;;;;92.35;60.47;;;;;;;5.34;100.00;102237.25;10568248;28;20042;-71
2022/11/30 00:34:25;;;;;;;92.82;61.47;;;;;;;5.37;100.00;102247.78;10552083;28;20047;-71
2022/11/30 00:39:26;;;;;;;92.97;60.17;;;;;;;5.37;100.00;102247.78;10567514;28;20035;-71
2022/11/30 00:44:26;;;;;;;98.22;64.45;;;;;;;5.27;100.00;102234.41;10566464;28;20043;-71
2022/11/30 00:49:27;;;;;;;89.65;61.42;;;;;;;5.26;100.00;102240.91;10567188;27;20050;-71
2022/11/30 00:54:27;;;;;;;89.35;59.30;;;;;;;5.29;100.00;102245.97;10532955;28;20483;-71
2022/11/30 00:59:28;;;;;;;97.32;59.88;;;;;;;5.26;100.00;102246.38;10566529;28;20028;-71
2022/11/30 01:04:28;;;;;;;86.60;58.97;;;;;;;5.20;100.00;102236.19;10550656;28;20032;-71
2022/11/30 01:09:29;;;;;;;93.18;61.15;;;;;;;5.22;100.00;102234.13;10565446;28;20039;-71
2022/11/30 01:14:29;;;;;;;100.13;62.92;;;;;;;5.26;100.00;102235.44;10583332;28;20032;-70
2022/11/30 01:19:30;;;;;;;102.50;61.57;;;;;;;5.27;100.00;102248.06;10584589;28;20051;-71
2022/11/30 01:24:30;;;;;;;96.97;61.55;;;;;;;5.27;100.00;102253.50;10538386;28;20035;-71
2022/11/30 01:29:31;;;;;;;97.32;64.38;;;;;;;5.26;100.00;102258.13;10548813;28;20032;-71
2022/11/30 01:34:31;;;;;;;90.53;61.08;;;;;;;5.28;100.00;102265.31;10541490;28;20058;-71
2022/11/30 01:39:32;;;;;;;98.95;63.17;;;;;;;5.21;100.00;102266.03;10525959;27;20032;-71
2022/11/30 01:44:32;;;;;;;96.00;61.72;;;;;;;5.21;100.00;102265.22;10564535;28;20036;-72
2022/11/30 01:49:38;;;;;;;98.23;64.20;;;;;;;5.11;100.00;102242.78;10582535;28;20054;-68
2022/11/30 01:54:50;;;;;;;87.43;61.30;;;;;;;5.22;100.00;102266.88;10547863;28;20212;-71
2022/11/30 01:59:52;;;;;;;86.53;60.20;;;;;;;5.12;100.00;102277.22;10547998;28;20035;-71
2022/11/30 02:04:52;;;;;;;83.78;58.47;;;;;;;5.12;100.00;102272.59;10546816;28;20046;-71
2022/11/30 02:09:53;;;;;;;89.47;63.25;;;;;;;5.10;100.00;102269.19;10547307;28;20031;-71
2022/11/30 02:14:54;;;;;;;88.03;61.35;;;;;;;5.15;100.00;102276.88;10582475;28;20034;-71
2022/11/30 02:20:17;;;;;;;91.05;62.88;;;;;;;5.17;100.00;102270.19;10547199;27;20061;-71
2022/11/30 02:25:46;;;;;;;88.07;64.00;;;;;;;5.19;100.00;102272.72;10562629;28;20051;-71
2022/11/30 02:30:47;;;;;;;92.97;62.25;;;;;;;4.96;100.00;102232.66;10580669;28;20565;-71
2022/11/30 02:35:49;;;;;;;96.05;62.78;;;;;;;5.07;100.00;102260.56;10528645;28;20080;-72
2022/11/30 02:40:49;;;;;;;82.68;60.92;;;;;;;5.06;100.00;102256.94;10528695;28;20035;-71
2022/11/30 02:46:26;;;;;;;86.90;62.47;;;;;;;5.07;100.00;102271.47;10529434;28;20495;-71
2022/11/30 02:51:26;;;;;;;64.10;51.00;;;;;;;5.04;100.00;102264.47;10552850;28;20039;-71
2022/11/30 02:56:27;;;;;;;86.25;60.00;;;;;;;5.02;100.00;102267.41;10544531;28;20259;-71
2022/11/30 03:01:27;;;;;;;90.75;59.78;;;;;;;5.03;100.00;102274.56;10561885;28;20036;-71
2022/11/30 03:06:28;;;;;;;79.57;59.35;;;;;;;4.98;100.00;102276.13;10544773;28;20043;-71
2022/11/30 03:11:28;;;;;;;81.28;59.45;;;;;;;5.05;100.00;102283.41;10579555;28;20046;-71
2022/11/30 03:16:29;;;;;;;83.10;61.92;;;;;;;5.04;100.00;102287.19;10561836;28;20095;-71
2022/11/30 03:21:29;;;;;;;78.43;59.40;;;;;;;5.01;100.00;102271.16;10542557;28;20057;-71
2022/11/30 03:26:30;;;;;;;77.13;58.83;;;;;;;5.05;100.00;102280.69;10559771;28;20418;-69
2022/11/30 03:31:30;;;;;;;72.15;59.03;;;;;;;4.96;100.00;102276.34;10560551;28;20055;-71
2022/11/30 03:36:30;;;;;;;80.78;60.60;;;;;;;5.03;100.00;102284.63;10561150;28;20032;-71
2022/11/30 03:41:31;;;;;;;76.40;60.75;;;;;;;5.05;100.00;102293.47;10578952;28;20035;-72
2022/11/30 03:46:32;;;;;;;72.15;55.58;;;;;;;5.08;100.00;102293.09;10561187;28;20089;-71
2022/11/30 03:51:33;;;;;;;77.03;58.55;;;;;;;5.05;100.00;102301.69;10561930;28;20118;-71
2022/11/30 03:56:33;;;;;;;73.90;58.38;;;;;;;4.99;100.00;102300.50;10560311;28;20444;-71
2022/11/30 04:01:35;;;;;;;73.40;57.22;;;;;;;4.98;100.00;102293.38;10579041;28;20043;-71
2022/11/30 04:06:36;;;;;;;75.30;57.75;;;;;;;5.02;100.00;102302.03;10560083;28;20239;-71
2022/11/30 04:11:37;;;;;;;72.82;55.33;;;;;;;5.02;100.00;102310.22;10578342;28;20088;-71
2022/11/30 04:16:38;;;;;;;68.40;53.30;;;;;;;5.01;100.00;102314.84;10560747;28;20449;-71
2022/11/30 04:21:38;;;;;;;69.07;58.03;;;;;;;5.00;100.00;102324.06;10586254;28;20051;-72
2022/11/30 04:26:38;;;;;;;71.70;56.47;;;;;;;4.99;100.00;102319.63;10586352;28;20135;-71
2022/11/30 04:31:39;;;;;;;72.18;56.08;;;;;;;4.98;100.00;102317.94;10584836;28;20035;-71
2022/11/30 04:36:39;;;;;;;68.85;56.63;;;;;;;5.03;100.00;102322.84;10550405;28;20070;-71
2022/11/30 04:41:40;;;;;;;67.80;56.03;;;;;;;4.93;100.00;102311.31;10567059;28;20032;-71
2022/11/30 04:46:41;;;;;;;74.38;58.05;;;;;;;4.99;100.00;102326.97;10567464;28;20032;-71
2022/11/30 04:51:41;;;;;;;70.95;55.25;;;;;;;5.05;100.00;102327.09;10550282;28;20028;-71
2022/11/30 04:56:42;;;;;;;71.00;56.08;;;;;;;4.99;100.00;102322.34;10583797;28;20068;-71
2022/11/30 05:01:42;;;;;;;73.88;59.65;;;;;;;4.93;100.00;102323.06;10584521;28;20031;-71
2022/11/30 05:06:43;;;;;;;70.22;57.25;;;;;;;4.93;100.00;102325.81;10533268;27;20065;-71
2022/11/30 05:11:45;;;;;;;59.50;51.22;;;;;;;4.96;100.00;102333.66;10567258;28;20431;-71
2022/11/30 05:16:46;;;;;;;61.63;52.40;;;;;;;4.91;100.00;102336.06;10584632;28;20062;-70
2022/11/30 05:21:47;;;;;;;57.00;50.85;;;;;;;4.82;100.00;102318.06;10549447;28;20039;-71
2022/11/30 05:26:47;;;;;;;56.17;50.20;;;;;;;4.91;100.00;102336.06;10522072;28;20040;-70
2022/11/30 05:31:48;;;;;;;54.97;48.25;;;;;;;4.86;100.00;102333.03;10541296;28;20035;-71
2022/11/30 05:36:48;;;;;;;53.92;48.03;;;;;;;4.91;100.00;102351.59;10506830;28;20060;-71
2022/11/30 05:41:49;;;;;;;54.35;48.85;;;;;;;4.88;100.00;102347.34;10546028;27;20522;-71
2022/11/30 05:46:49;;;;;;;55.75;50.22;;;;;;;4.85;100.00;102347.69;10548015;28;20087;-71
2022/11/30 05:51:50;;;;;;;54.63;48.83;;;;;;;4.79;100.00;102342.97;10583010;28;20058;-71
2022/11/30 05:56:50;;;;;;;53.13;47.85;;;;;;;4.83;100.00;102353.31;10547358;28;20036;-71
2022/11/30 06:01:51;;;;;;;51.15;45.90;;;;;;;4.87;100.00;102359.28;10561948;27;20040;-71
2022/11/30 06:06:54;;;;;;;51.33;45.85;;;;;;;4.86;100.00;102354.88;10563416;27;20039;-70
2022/11/30 06:11:54;;;;;;;52.17;46.70;;;;;;;4.89;100.00;102365.41;10564276;28;20032;-71
2022/11/30 06:16:55;;;;;;;53.88;48.33;;;;;;;4.88;100.00;102369.19;10539508;28;20036;-70
2022/11/30 06:21:55;;;;;;;53.92;48.33;;;;;;;4.82;100.00;102358.97;10541408;28;20036;-71
2022/11/30 06:26:56;;;;;;;53.83;48.47;;;;;;;4.86;100.00;102363.06;10540562;28;20044;-71
2022/11/30 06:31:56;;;;;;;53.95;48.35;;;;;;;4.87;100.00;102366.63;10539375;28;20025;-71
2022/11/30 06:36:57;;;;;;;53.67;47.90;;;;;;;4.86;100.00;102365.78;10539708;28;20036;-71
2022/11/30 06:41:57;;;;;;;51.22;46.22;;;;;;;4.69;100.00;102353.25;10497181;28;20038;-71
2022/11/30 06:46:58;;;;;;;48.88;44.15;;;;;;;4.74;100.00;102378.13;10514055;28;20059;-71
2022/11/30 06:51:58;;;;;;;50.80;45.88;;;;;;;4.66;100.00;102384.47;10480486;28;20036;-70
2022/11/30 06:57:00;;;;;;;50.58;45.30;;;;;;;4.72;100.00;102391.09;10520563;28;20047;-71
2022/11/30 07:02:00;;;;;;;49.65;44.80;;;;;;;4.71;100.00;102394.84;10537971;28;20059;-71
2022/11/30 07:07:01;;;;;;;47.25;42.95;;;;;;;4.69;100.00;102392.28;10538558;28;20113;-71
2022/11/30 07:12:01;;;;;;;48.60;44.00;;;;;;;4.72;100.00;102418.38;10521972;28;20053;-71
2022/11/30 07:17:05;;;;;;;47.78;43.42;;;;;;;4.54;100.00;102386.72;10520493;28;20047;-71
2022/11/30 07:22:05;;;;;;;47.88;43.30;;;;;;;4.70;100.00;102417.72;10521137;28;20040;-71
2022/11/30 07:27:05;;;;;;;47.35;43.08;;;;;;;4.62;100.00;102411.25;10539118;28;20036;-71
2022/11/30 07:32:06;;;;;;;50.03;45.13;;;;;;;4.67;100.00;102431.69;10537817;28;20389;-71
2022/11/30 07:37:06;;;;;;;48.38;43.83;;;;;;;4.64;100.00;102430.16;10539219;28;20496;-71
2022/11/30 07:42:07;;;;;;;47.30;42.92;;;;;;;4.65;100.00;102438.19;10539176;28;20032;-71
2022/11/30 07:47:07;;;;;;;49.22;44.22;;;;;;;4.64;100.00;102438.34;10539634;28;20089;-71
2022/11/30 07:52:08;;;;;;;48.83;43.47;;;;;;;4.64;100.00;102444.66;10516838;28;20040;-69
2022/11/30 07:57:08;;;;;;;49.92;44.45;;;;;;;4.63;100.00;102448.41;10520642;28;20059;-71
2022/11/30 08:02:09;;;;;;;51.28;45.33;;;;;;;4.67;100.00;102468.00;10527352;28;20085;-71
2022/11/30 08:07:10;;;;;;;51.88;46.25;;;;;;;4.61;100.00;102460.50;10524387;28;20063;-70
2022/11/30 08:12:10;;;;;;;51.75;45.97;;;;;;;4.71;100.00;102479.41;10522811;28;20048;-71
2022/11/30 08:17:11;;;;;;;60.35;50.60;;;;;;;4.75;100.00;102483.50;10604424;27;20500;-71
2022/11/30 08:22:11;;;;;;;53.20;47.08;;;;;;;4.77;100.00;102470.53;10605501;27;20123;-71
2022/11/30 08:27:12;;;;;;;61.05;50.90;;;;;;;4.91;100.00;102477.97;10624274;27;20043;-71
2022/11/30 08:32:12;;;;;;;56.63;50.50;;;;;;;4.91;100.00;102477.97;10607263;27;20038;-70
2022/11/30 08:37:12;;;;;;;58.80;52.78;;;;;;;4.98;100.00;102500.81;10609620;27;20039;-71
2022/11/30 08:42:13;;;;;;;61.20;53.40;;;;;;;5.02;100.00;102493.97;10570348;27;20048;-70
2022/11/30 08:47:14;;;;;;;61.60;55.03;;;;;;;5.05;100.00;102507.25;10576370;27;20043;-71
2022/11/30 08:52:14;;;;;;;70.50;54.65;;;;;;;5.08;100.00;102499.72;10620200;27;20036;-71
2022/11/30 08:57:16;;;;;;;67.55;55.38;;;;;;;4.95;100.00;102495.69;10617742;27;20039;-71
2022/11/30 09:02:17;;;;;;;69.35;54.90;;;;;;;4.96;100.00;102508.31;10607746;27;20031;-72
2022/11/30 09:07:18;;;;;;;62.83;54.42;;;;;;;5.02;100.00;102521.25;10608051;27;20031;-72
2022/11/30 09:12:19;;;;;;;72.65;55.53;;;;;;;5.10;100.00;102522.25;10591602;27;20023;-71
2022/11/30 09:17:19;;;;;;;73.13;56.65;;;;;;;5.18;100.00;102516.75;10589916;27;20040;-71
2022/11/30 09:22:20;;;;;;;70.10;55.78;;;;;;;5.13;100.00;102505.53;10583454;28;20062;-71
2022/11/30 09:27:20;;;;;;;72.93;55.22;;;;;;;5.32;100.00;102512.41;10565898;28;20028;-72
2022/11/30 09:32:20;;;;;;;63.25;54.42;;;;;;;5.44;100.00;102520.03;10583193;28;20061;-71
2022/11/30 09:37:22;;;;;;;67.18;55.47;;;;;;;5.46;100.00;102522.59;10566025;28;20660;-71
2022/11/30 09:42:42;;;;;;;73.35;56.22;;;;;;;5.34;100.00;102516.66;10564683;27;20028;-71
2022/11/30 09:48:01;;;;;;;71.88;57.45;;;;;;;5.39;100.00;102514.22;10562132;28;20070;-72
2022/11/30 09:53:10;;;;;;;73.90;57.65;;;;;;;5.35;100.00;102512.88;10526396;28;20220;-71
2022/11/30 09:58:38;;;;;;;82.53;59.88;;;;;;;5.35;100.00;102518.34;10526986;28;20058;-70
2022/11/30 10:03:39;;;;;;;80.90;58.33;;;;;;;5.32;100.00;102512.41;10529448;28;20039;-71
2022/11/30 10:08:57;;;;;;;84.32;60.30;;;;;;;5.37;100.00;102510.81;10509901;28;20666;-72
2022/11/30 10:14:01;;;;;;;81.03;57.97;;;;;;;5.41;100.00;102514.91;10570794;28;20051;-71
2022/11/30 10:19:23;;;;;;;81.72;57.47;;;;;;;5.42;100.00;102511.16;10563260;28;20034;-71
2022/11/30 10:24:36;;;;;;;76.97;56.42;;;;;;;5.41;100.00;102517.63;10564244;28;20499;-72
2022/11/30 10:29:38;;;;;;;81.13;57.10;;;;;;;5.47;100.00;102505.16;10547541;28;20035;-71
2022/11/30 10:34:39;;;;;;;75.47;58.05;;;;;;;5.54;100.00;102513.47;10554170;28;20039;-72
2022/11/30 10:39:47;;;;;;;91.57;63.42;;;;;;;5.50;100.00;102514.84;10508760;28;20032;-72
2022/11/30 10:44:59;;;;;;;82.97;58.17;;;;;;;5.15;100.00;102462.50;10551276;28;20035;-71
2022/11/30 10:50:00;;;;;;;86.55;60.50;;;;;;;5.45;100.00;102505.31;10546718;28;20095;-71
2022/11/30 10:55:01;;;;;;;102.13;69.00;;;;;;;5.57;100.00;102507.66;10562861;28;20036;-71
2022/11/30 11:00:02;;;;;;;83.53;60.97;;;;;;;5.54;100.00;102510.72;10579652;28;20043;-71
2022/11/30 11:05:15;;;;;;;100.95;65.65;;;;;;;5.58;100.00;102512.94;10545285;28;20046;-72
2022/11/30 11:10:19;;;;;;;111.70;67.95;;;;;;;5.50;100.00;102509.38;10561965;28;20043;-71
2022/11/30 11:15:25;;;;;;;122.20;73.07;;;;;;;5.49;100.00;102518.63;10545708;28;20035;-71
2022/11/30 11:20:37;;;;;;;112.97;71.40;;;;;;;5.36;100.00;102506.41;10546593;28;20028;-71
2022/11/30 11:25:41;;;;;;;118.28;69.90;;;;;;;5.37;100.00;102521.75;10531033;28;20039;-71
2022/11/30 11:30:42;;;;;;;125.22;72.90;;;;;;;5.24;100.00;102505.97;10518832;27;20036;-71
2022/11/30 11:35:48;;;;;;;114.10;70.57;;;;;;;5.31;100.00;102522.47;10569688;28;20031;-72
2022/11/30 11:40:53;;;;;;;111.22;68.80;;;;;;;5.19;100.00;102515.72;10570282;28;20031;-72
2022/11/30 11:45:57;;;;;;;113.43;66.15;;;;;;;5.33;100.00;102525.03;10522962;28;20526;-72
2022/11/30 11:51:03;;;;;;;93.55;62.53;;;;;;;5.45;100.00;102529.06;10508979;28;20514;-72
2022/11/30 11:56:08;;;;;;;86.88;62.20;;;;;;;5.53;100.00;102525.44;10527102;28;20085;-72
2022/11/30 12:01:12;;;;;;;82.07;60.22;;;;;;;5.50;100.00;102525.78;10560209;28;20051;-72
2022/11/30 12:06:13;;;;;;;79.10;59.88;;;;;;;5.41;100.00;102509.44;10553032;28;20050;-72
2022/11/30 12:11:43;;;;;;;87.38;62.00;;;;;;;5.44;100.00;102500.06;10552641;28;20043;-72
2022/11/30 12:17:25;;;;;;;91.68;58.25;;;;;;;5.44;100.00;102517.28;10528244;28;20073;-72
2022/11/30 12:22:56;;;;;;;92.88;59.15;;;;;;;5.39;100.00;102511.50;10543882;28;20040;-72
2022/11/30 12:28:18;;;;;;;83.60;57.65;;;;;;;5.40;100.00;102509.63;10488334;28;20515;-73
2022/11/30 12:33:34;;;;;;;90.85;59.28;;;;;;;5.53;100.00;102518.09;10571935;27;20040;-72
2022/11/30 12:38:48;;;;;;;95.07;59.72;;;;;;;5.59;100.00;102521.97;10567591;27;20039;-72
2022/11/30 12:44:04;;;;;;;83.57;60.00;;;;;;;5.56;100.00;102514.13;10585284;27;20053;-71
2022/11/30 12:49:22;;;;;;;86.75;57.20;;;;;;;5.44;100.00;102517.28;10575486;27;20066;-72
2022/11/30 12:54:38;;;;;;;87.10;58.67;;;;;;;5.34;100.00;102503.00;10544284;27;20084;-71
2022/11/30 13:00:03;;;;;;;82.30;54.87;;;;;;;5.41;100.00;102524.97;10562724;27;20044;-72
2022/11/30 13:05:11;;;;;;;92.38;57.30;;;;;;;5.31;100.00;102525.19;10563801;28;20311;-72
2022/11/30 13:10:17;;;;;;;88.32;59.28;;;;;;;5.41;100.00;102544.94;10554761;27;20127;-72
2022/11/30 13:15:32;;;;;;;95.53;63.85;;;;;;;5.31;100.00;102536.13;10584465;27;20043;-72
2022/11/30 13:21:12;;;;;;;103.45;64.82;;;;;;;5.40;100.00;102547.88;10569695;27;20118;-72
2022/11/30 13:26:22;;;;;;;96.65;65.07;;;;;;;5.41;100.00;102552.28;10572129;27;20051;-72
2022/11/30 13:31:30;;;;;;;94.88;61.53;;;;;;;5.38;100.00;102545.31;10543765;28;20032;-71
2022/11/30 13:36:43;;;;;;;96.43;62.85;;;;;;;5.34;100.00;102537.66;10542239;28;20115;-72
2022/11/30 13:42:07;;;;;;;101.93;61.13;;;;;;;5.32;100.00;102550.66;10511701;27;20043;-72
2022/11/30 13:47:27;;;;;;;101.03;62.75;;;;;;;5.34;100.00;102533.06;10537754;27;20043;-73
2022/11/30 13:52:59;;;;;;;109.03;66.07;;;;;;;5.40;100.00;102542.41;10553929;27;21751;-72
2022/11/30 13:57:59;;;;;;;101.20;62.05;;;;;;;5.39;100.00;102544.28;10555992;27;20064;-72
2022/11/30 14:03:19;;;;;;;99.90;60.75;;;;;;;5.37;100.00;102546.34;10550427;27;20040;-73
2022/11/30 14:08:22;;;;;;;103.55;63.35;;;;;;;5.35;100.00;102548.38;10556619;27;20099;-72
2022/11/30 14:13:26;;;;;;;96.43;61.28;;;;;;;5.30;100.00;102548.09;10553921;27;20586;-72
2022/11/30 14:18:38;;;;;;;96.10;59.85;;;;;;;5.29;100.00;102551.84;10524517;27;20508;-72
2022/11/30 14:23:38;;;;;;;89.82;59.28;;;;;;;5.32;100.00;102567.88;10525401;27;20063;-72
2022/11/30 14:28:41;;;;;;;89.30;59.00;;;;;;;5.31;100.00;102563.44;10524088;27;20080;-72
2022/11/30 14:33:53;;;;;;;94.68;58.92;;;;;;;5.33;100.00;102564.09;10525896;27;20036;-72
2022/11/30 14:38:54;;;;;;;99.10;61.22;;;;;;;5.28;100.00;102569.25;10529549;27;20507;-72
2022/11/30 14:44:02;;;;;;;93.40;58.30;;;;;;;5.24;100.00;102570.66;10504286;27;20036;-72
2022/11/30 14:49:12;;;;;;;95.07;58.92;;;;;;;5.10;100.00;102566.78;10492525;27;20048;-72
2022/11/30 14:54:42;;;;;;;91.40;56.20;;;;;;;5.10;100.00;102560.47;10535138;27;20520;-72
2022/11/30 14:59:52;;;;;;;86.40;55.35;;;;;;;4.74;100.00;102525.47;10525410;27;20404;-72
2022/11/30 15:04:53;;;;;;;103.13;60.55;;;;;;;5.13;100.00;102584.69;10509794;27;20040;-72
2022/11/30 15:10:10;;;;;;;98.03;58.50;;;;;;;5.07;100.00;102586.25;10502467;27;20044;-71
2022/11/30 15:15:17;;;;;;;100.50;61.35;;;;;;;5.08;100.00;102595.28;10511167;28;20118;-72
2022/11/30 15:20:24;;;;;;;101.70;61.45;;;;;;;5.04;100.00;102587.47;10551808;28;20077;-71
2022/11/30 15:25:49;;;;;;;103.85;61.67;;;;;;;4.98;100.00;102579.09;10557222;28;20045;-71
2022/11/30 15:30:53;;;;;;;106.95;63.22;;;;;;;4.95;100.00;102585.75;10506147;28;20035;-72
2022/11/30 15:35:53;;;;;;;95.00;61.80;;;;;;;4.94;100.00;102586.81;10537911;28;20066;-72
2022/11/30 15:41:04;;;;;;;97.97;61.92;;;;;;;4.83;100.00;102565.31;10507846;28;20588;-71
2022/11/30 15:46:05;;;;;;;96.60;62.95;;;;;;;4.96;100.00;102592.06;10549356;28;20119;-71
2022/11/30 15:51:05;;;;;;;109.20;63.30;;;;;;;5.02;100.00;102605.00;10549115;28;20495;-72
2022/11/30 15:56:07;;;;;;;109.35;65.93;;;;;;;4.92;100.00;102585.25;10526237;28;20032;-72
2022/11/30 16:01:11;;;;;;;98.65;59.75;;;;;;;5.01;100.00;102606.91;10562597;28;20046;-72
2022/11/30 16:06:12;;;;;;;104.38;61.75;;;;;;;4.99;100.00;102606.22;10581495;28;20051;-72
2022/11/30 16:11:12;;;;;;;91.50;60.25;;;;;;;4.97;100.00;102616.47;10563247;28;20048;-71
2022/11/30 16:16:19;;;;;;;93.38;60.20;;;;;;;4.61;100.00;102565.06;10553947;27;20409;-70
2022/11/30 16:21:20;;;;;;;89.20;56.83;;;;;;;4.92;100.00;102616.16;10471878;28;20068;-71
2022/11/30 16:26:20;;;;;;;94.15;59.70;;;;;;;4.92;100.00;102626.19;10509502;28;20048;-71
2022/11/30 16:31:21;;;;;;;101.28;60.15;;;;;;;4.94;100.00;102625.00;10543135;27;20043;-71
2022/11/30 16:36:21;;;;;;;99.53;58.10;;;;;;;4.87;100.00;102624.00;10520454;28;20043;-70
2022/11/30 16:41:25;;;;;;;93.00;59.67;;;;;;;4.95;100.00;102634.91;10521358;27;20078;-73
2022/11/30 16:46:27;;;;;;;98.25;60.63;;;;;;;4.88;100.00;102631.16;10522648;27;20054;-71
2022/11/30 16:51:30;;;;;;;87.75;56.92;;;;;;;4.85;100.00;102636.97;10536298;27;20065;-71
2022/11/30 16:56:30;;;;;;;95.90;57.80;;;;;;;4.81;100.00;102632.88;10499330;28;20044;-71
2022/11/30 17:01:37;;;;;;;95.80;57.78;;;;;;;4.78;100.00;102642.25;10500747;28;20054;-71
2022/11/30 17:06:37;;;;;;;93.25;59.17;;;;;;;4.85;100.00;102659.63;10516036;27;20035;-71
2022/11/30 17:11:38;;;;;;;96.38;58.35;;;;;;;4.79;100.00;102654.03;10523324;27;20115;-71
2022/11/30 17:16:38;;;;;;;98.28;60.47;;;;;;;4.73;100.00;102647.38;10498976;28;20152;-70
2022/11/30 17:21:39;;;;;;;94.25;58.95;;;;;;;4.78;100.00;102661.38;10518089;27;20288;-72
2022/11/30 17:26:39;;;;;;;97.68;59.67;;;;;;;4.81;100.00;102668.34;10525686;27;20043;-73
2022/11/30 17:31:40;;;;;;;99.90;57.25;;;;;;;4.77;100.00;102658.78;10531943;28;20046;-73
2022/11/30 17:36:40;;;;;;;95.90;59.08;;;;;;;4.76;100.00;102654.38;10558984;28;20460;-73
2022/11/30 17:41:40;;;;;;;101.25;59.92;;;;;;;4.80;100.00;102661.19;10545270;27;20041;-73
2022/11/30 17:46:42;;;;;;;98.00;58.67;;;;;;;4.80;100.00;102672.97;10544929;28;20054;-72
2022/11/30 17:51:42;;;;;;;116.25;62.10;;;;;;;4.81;100.00;102676.53;10564245;28;20042;-72
2022/11/30 17:56:43;;;;;;;111.22;64.07;;;;;;;4.50;100.00;102632.72;10596624;27;20039;-72
2022/11/30 18:01:43;;;;;;;119.82;63.50;;;;;;;4.83;100.00;102682.66;10583058;28;20059;-72
2022/11/30 18:06:44;;;;;;;119.95;61.78;;;;;;;4.89;100.00;102698.34;10582500;28;20046;-72
2022/11/30 18:11:45;;;;;;;114.80;62.20;;;;;;;4.82;100.00;102689.16;10514626;28;20028;-72
2022/11/30 18:16:46;;;;;;;121.78;63.40;;;;;;;4.84;100.00;102689.84;10538997;28;20097;-73
2022/11/30 18:21:46;;;;;;;119.80;66.22;;;;;;;4.87;100.00;102700.41;10539958;28;20040;-72
2022/11/30 18:26:48;;;;;;;117.97;65.53;;;;;;;4.90;100.00;102711.00;10516054;28;20492;-73
2022/11/30 18:31:50;;;;;;;124.60;67.75;;;;;;;4.87;100.00;102711.31;10535060;28;20452;-72
2022/11/30 18:36:50;;;;;;;112.93;64.55;;;;;;;4.91;100.00;102722.75;10537029;28;20065;-73
2022/11/30 18:41:51;;;;;;;121.82;64.55;;;;;;;4.92;100.00;102719.88;10507820;27;20080;-72
2022/11/30 18:46:51;;;;;;;124.35;64.07;;;;;;;4.93;100.00;102721.56;10582407;27;20038;-72
2022/11/30 18:51:52;;;;;;;117.97;65.95;;;;;;;4.87;100.00;102722.25;10553377;27;20040;-72
2022/11/30 18:56:52;;;;;;;130.90;66.82;;;;;;;4.90;100.00;102721.91;10562194;27;20263;-73
2022/11/30 19:01:54;;;;;;;129.05;67.28;;;;;;;4.93;100.00;102727.00;10582478;28;20059;-73
2022/11/30 19:06:54;;;;;;;116.80;65.43;;;;;;;4.81;100.00;102717.47;10581886;27;20127;-73
2022/11/30 19:11:56;;;;;;;115.35;66.03;;;;;;;4.88;100.00;102723.97;10621275;27;20048;-72
2022/11/30 19:16:57;;;;;;;115.18;63.55;;;;;;;4.97;100.00;102733.84;10623059;27;21369;-72
2022/11/30 19:21:57;;;;;;;131.63;69.63;;;;;;;4.90;100.00;102727.38;10603219;27;20066;-73
2022/11/30 19:26:58;;;;;;;131.77;69.97;;;;;;;4.90;100.00;102723.78;10619668;27;20030;-71
2022/11/30 19:31:58;;;;;;;130.80;69.63;;;;;;;4.81;100.00;102714.75;10604209;27;20038;-73
2022/11/30 19:36:59;;;;;;;147.65;73.85;;;;;;;4.95;100.00;102745.97;10621759;27;20039;-72
2022/11/30 19:41:59;;;;;;;130.25;68.05;;;;;;;4.91;100.00;102744.59;10620838;27;20031;-72
2022/11/30 19:47:00;;;;;;;144.30;69.88;;;;;;;4.93;100.00;102739.81;10623161;27;20060;-72
2022/11/30 19:52:00;;;;;;;145.52;72.53;;;;;;;4.94;100.00;102745.13;10628769;27;20031;-72
2022/11/30 19:57:01;;;;;;;143.05;75.45;;;;;;;4.95;100.00;102754.16;10620423;27;20441;-71
2022/11/30 20:02:01;;;;;;;133.35;67.45;;;;;;;4.96;100.00;102745.78;10602338;27;20031;-72
2022/11/30 20:07:01;;;;;;;144.35;75.43;;;;;;;4.91;100.00;102750.91;10610945;27;20080;-72
2022/11/30 20:12:02;;;;;;;147.32;73.88;;;;;;;4.94;100.00;102761.50;10624783;27;20031;-72
2022/11/30 20:17:03;;;;;;;131.48;65.85;;;;;;;4.77;100.00;102732.47;10606462;27;20065;-72
2022/11/30 20:22:05;;;;;;;144.40;70.53;;;;;;;4.92;100.00;102752.63;10606069;27;20085;-72
2022/11/30 20:27:05;;;;;;;146.23;69.55;;;;;;;4.80;100.00;102743.06;10585247;27;20032;-72
2022/11/30 20:32:06;;;;;;;135.05;69.63;;;;;;;4.94;100.00;102768.81;10602506;27;20027;-71
2022/11/30 20:37:06;;;;;;;136.75;72.30;;;;;;;4.80;100.00;102757.56;10564101;27;20040;-72
2022/11/30 20:42:07;;;;;;;141.40;69.78;;;;;;;4.86;100.00;102772.41;10569134;27;20028;-72
2022/11/30 20:47:08;;;;;;;136.30;71.15;;;;;;;4.84;100.00;102766.25;10597624;27;20039;-72
2022/11/30 20:52:08;;;;;;;122.97;69.22;;;;;;;4.84;100.00;102771.72;10608330;27;20046;-72
2022/11/30 20:57:27;;;;;;;143.05;70.63;;;;;;;4.89;100.00;102779.41;10626133;27;20059;-72
2022/11/30 21:02:28;;;;;;;139.30;69.30;;;;;;;4.87;100.00;102779.56;10624799;27;20486;-71
2022/11/30 21:07:28;;;;;;;137.30;69.43;;;;;;;4.88;100.00;102778.53;10624960;27;20051;-72
2022/11/30 21:12:29;;;;;;;135.98;71.43;;;;;;;4.84;100.00;102771.72;10531091;27;20040;-72
2022/11/30 21:17:29;;;;;;;149.80;74.20;;;;;;;4.80;100.00;102776.66;10521952;27;20113;-72
2022/11/30 21:22:31;;;;;;;139.43;69.45;;;;;;;4.86;100.00;102786.06;10526479;27;20052;-72
2022/11/30 21:27:32;;;;;;;153.70;75.00;;;;;;;4.86;100.00;102788.78;10529212;27;20044;-72
2022/11/30 21:32:32;;;;;;;153.45;68.72;;;;;;;4.84;100.00;102777.19;10527086;27;20091;-72
2022/11/30 21:37:33;;;;;;;153.82;77.05;;;;;;;4.89;100.00;102790.31;10524323;27;20036;-72
2022/11/30 21:42:33;;;;;;;151.27;73.10;;;;;;;4.87;100.00;102779.56;10524712;27;20100;-72
2022/11/30 21:47:34;;;;;;;156.50;74.30;;;;;;;4.57;100.00;102726.50;10522444;27;20048;-72
2022/11/30 21:52:35;;;;;;;144.00;71.50;;;;;;;4.88;100.00;102784.00;10522899;27;20107;-72
2022/11/30 21:57:35;;;;;;;144.57;70.72;;;;;;;4.87;100.00;102782.28;10502566;27;20040;-72
2022/11/30 22:02:36;;;;;;;164.10;79.45;;;;;;;4.88;100.00;102785.84;10552741;27;20063;-72
2022/11/30 22:07:37;;;;;;;145.05;74.55;;;;;;;4.86;100.00;102780.59;10622423;27;20054;-72
2022/11/30 22:12:37;;;;;;;157.23;70.45;;;;;;;4.81;100.00;102783.81;10623865;27;20039;-72
2022/11/30 22:17:38;;;;;;;159.02;75.68;;;;;;;4.75;100.00;102784.47;10604865;27;20074;-72
2022/11/30 22:22:38;;;;;;;164.20;76.25;;;;;;;4.61;100.00;102787.88;10604528;27;20047;-71
2022/11/30 22:27:39;;;;;;;150.57;73.97;;;;;;;4.51;100.00;102784.47;10623015;27;20047;-71
2022/11/30 22:32:39;;;;;;;175.80;74.93;;;;;;;4.41;100.00;102781.88;10623809;27;20391;-72
2022/11/30 22:37:40;;;;;;;169.23;79.43;;;;;;;4.32;100.00;102782.84;10621028;27;20047;-72
2022/11/30 22:42:40;;;;;;;176.00;76.47;;;;;;;4.33;100.00;102798.22;10570244;27;20036;-72